Urb Los Jardines, Puerto Rico
Current Conditions -  °F | °C
As of 1:50 PM on Sunday 21 Dec 2014 (Local Time) from TJPS Reporting Station
Few Clouds Few Clouds  
Wind Chill: 88°   Ceiling: Unl
Heat Index: 89°   Visibility: 10mi
Dew Point: 64°   Wind: 9mph
Humidity: 46%   Direction: 10°N
Pressure: 29.97"   Gusts: NA
Location:  18.4598°N, 66.6117°W
Report Text: TJPS 211750Z 01008KT 10SM FEW020 FEW060 31/18 A2997
Loading
Personal Weather Stations






























Interactive Weather Map New forecast layout! Learn more

10-Day Weather Forecast

Advertisements
Track Severe Weather on mobile